createdAt,value
2024-03-04T00:00:24.073Z,95551.88
2024-03-04T00:01:25.967Z,95554.25
2024-03-04T00:02:28.197Z,95557.31
2024-03-04T00:03:30.083Z,95555.13
2024-03-04T00:04:31.978Z,95564.38
2024-03-04T00:05:36.919Z,95557.94
2024-03-04T00:06:38.786Z,95563.78
2024-03-04T00:07:40.602Z,95564.66
2024-03-04T00:08:42.577Z,95566.34
2024-03-04T00:09:44.303Z,95571.91
2024-03-04T00:10:46.358Z,95568.88
2024-03-04T00:11:48.312Z,95573.19
2024-03-04T00:12:50.207Z,95570.13
2024-03-04T00:13:52.153Z,95577.94
2024-03-04T00:14:54.118Z,95577.44
2024-03-04T00:15:55.972Z,95581.50
2024-03-04T00:16:57.868Z,95580.13
2024-03-04T00:17:59.882Z,95579.31
2024-03-04T00:19:01.831Z,95583.88
2024-03-04T00:20:08.206Z,95583.88
2024-03-04T00:21:10.307Z,95569.88
2024-03-04T00:22:12.115Z,95575.63
2024-03-04T00:23:13.981Z,95575.06
2024-03-04T00:24:15.835Z,95580.47
2024-03-04T00:25:17.880Z,95586.13
2024-03-04T00:26:19.661Z,95575.38
2024-03-04T00:27:21.633Z,95579.78
2024-03-04T00:28:23.483Z,95577.38
2024-03-04T00:29:25.398Z,95582.59
2024-03-04T00:30:27.099Z,95582.00
2024-03-04T00:31:29.280Z,95579.41
2024-03-04T00:32:31.290Z,95584.03
2024-03-04T00:33:33.237Z,95576.22
2024-03-04T00:34:35.050Z,95586.53
2024-03-04T00:35:37.060Z,95585.34
2024-03-04T00:36:38.858Z,95582.28
2024-03-04T00:37:42.774Z,95585.66
2024-03-04T00:38:44.633Z,95583.72
2024-03-04T00:39:47.856Z,95584.59
2024-03-04T00:40:50.699Z,95579.84
2024-03-04T00:41:52.471Z,95578.69
2024-03-04T00:42:54.818Z,95586.25
2024-03-04T00:43:56.736Z,95590.66
2024-03-04T00:44:58.805Z,95586.91
2024-03-04T00:46:00.788Z,95586.56
2024-03-04T00:47:02.708Z,95586.41
2024-03-04T00:48:04.716Z,95591.03
2024-03-04T00:49:06.550Z,95591.81
2024-03-04T00:50:10.032Z,95585.19
2024-03-04T00:51:15.067Z,95593.19
2024-03-04T00:52:18.739Z,95591.16
2024-03-04T00:53:20.467Z,95588.00
2024-03-04T00:54:22.320Z,95585.97
2024-03-04T00:55:24.201Z,95584.31
2024-03-04T00:56:25.942Z,95586.34
2024-03-04T00:57:30.878Z,95584.97
2024-03-04T00:58:33.034Z,95585.97
2024-03-04T00:59:35.182Z,95586.56
2024-03-04T01:00:37.042Z,95587.00
2024-03-04T01:01:39.896Z,95583.00
2024-03-04T01:02:45.669Z,95585.97
2024-03-04T01:03:47.480Z,95587.34
2024-03-04T01:04:49.952Z,95583.75
2024-03-04T01:05:51.938Z,95591.31
2024-03-04T01:06:57.536Z,95591.94
2024-03-04T01:07:59.301Z,95590.59
2024-03-04T01:09:01.047Z,95594.34
2024-03-04T01:10:02.837Z,95592.31
2024-03-04T01:11:04.925Z,95594.91
2024-03-04T01:12:06.864Z,95591.53
2024-03-04T01:13:09.183Z,95592.53
2024-03-04T01:14:11.129Z,95589.50
2024-03-04T01:15:12.923Z,95596.06
2024-03-04T01:16:14.817Z,95590.66
2024-03-04T01:17:18.489Z,95601.47
2024-03-04T01:18:21.980Z,95591.81
2024-03-04T01:19:25.260Z,95591.66
2024-03-04T01:20:28.202Z,95591.47
2024-03-04T01:21:30.068Z,95597.88
2024-03-04T01:22:31.948Z,95595.50
2024-03-04T01:23:34.292Z,95597.88
2024-03-04T01:24:36.519Z,95591.66
2024-03-04T01:25:38.347Z,95590.06
2024-03-04T01:26:40.175Z,95597.63
2024-03-04T01:27:43.658Z,95604.25
2024-03-04T01:28:49.132Z,95593.53
2024-03-04T01:29:50.907Z,95594.97
2024-03-04T01:30:54.818Z,95596.13
2024-03-04T01:31:56.594Z,95590.28
2024-03-04T01:33:00.834Z,95596.06
2024-03-04T01:34:04.485Z,95592.88
2024-03-04T01:35:09.121Z,95591.72
2024-03-04T01:36:11.001Z,95591.28
2024-03-04T01:37:12.856Z,95593.00
2024-03-04T01:38:15.382Z,95595.69
2024-03-04T01:39:17.225Z,95592.38
2024-03-04T01:40:19.244Z,95599.13
2024-03-04T01:41:20.964Z,95589.03
2024-03-04T01:42:22.777Z,95594.91
2024-03-04T01:43:24.607Z,95591.91
2024-03-04T01:44:31.436Z,95593.06
2024-03-04T01:45:34.092Z,95602.84
2024-03-04T01:46:37.261Z,95598.06
2024-03-04T01:47:39.159Z,95587.88
2024-03-04T01:48:41.756Z,95592.84
2024-03-04T01:49:43.863Z,95594.19
2024-03-04T01:50:46.448Z,95595.88
2024-03-04T01:51:48.240Z,95588.50
2024-03-04T01:52:50.895Z,95590.69
2024-03-04T01:53:52.838Z,95588.38
2024-03-04T01:54:56.557Z,95594.34
2024-03-04T01:56:04.206Z,95597.13
2024-03-04T01:57:07.921Z,95595.50
2024-03-04T01:58:13.478Z,95600.63
2024-03-04T01:59:15.970Z,95591.41
2024-03-04T02:00:18.709Z,95591.38
2024-03-04T02:01:20.863Z,95591.16
2024-03-04T02:02:22.859Z,95595.72
2024-03-04T02:03:24.612Z,95584.91
2024-03-04T02:04:26.729Z,95588.66
2024-03-04T02:05:28.849Z,95594.59
2024-03-04T02:06:30.680Z,95593.38
2024-03-04T02:07:35.529Z,95593.38
2024-03-04T02:08:37.995Z,95589.19
2024-03-04T02:09:40.607Z,95595.66
2024-03-04T02:10:42.385Z,95593.84
2024-03-04T02:11:45.360Z,95596.22
2024-03-04T02:12:48.746Z,95594.66
2024-03-04T02:13:50.923Z,95588.91
2024-03-04T02:14:53.558Z,95595.25
2024-03-04T02:15:55.472Z,95592.22
2024-03-04T02:16:57.278Z,95599.19
2024-03-04T02:17:59.705Z,95594.81
2024-03-04T02:19:02.280Z,95597.19
2024-03-04T02:20:05.772Z,95594.38
2024-03-04T02:21:08.650Z,95604.78
2024-03-04T02:22:12.411Z,95599.28
2024-03-04T02:23:14.596Z,95605.34
2024-03-04T02:24:16.580Z,95600.47
2024-03-04T02:25:20.588Z,95600.88
2024-03-04T02:26:22.355Z,95607.88
2024-03-04T02:27:24.635Z,95606.84
2024-03-04T02:28:29.138Z,95596.47
2024-03-04T02:29:31.070Z,95605.09
2024-03-04T02:30:33.771Z,95600.88
2024-03-04T02:31:35.650Z,95605.47
2024-03-04T02:32:37.559Z,95607.81
2024-03-04T02:33:43.538Z,95607.47
2024-03-04T02:34:48.492Z,95613.00
2024-03-04T02:35:51.207Z,95619.38
2024-03-04T02:36:53.257Z,95612.97
2024-03-04T02:37:55.867Z,95611.00
2024-03-04T02:38:58.280Z,95606.84
2024-03-04T02:40:00.853Z,95614.09
2024-03-04T02:41:05.261Z,95614.56
2024-03-04T02:42:09.687Z,95613.97
2024-03-04T02:43:12.962Z,95604.84
2024-03-04T02:44:15.053Z,95616.47
2024-03-04T02:45:16.784Z,95616.88
2024-03-04T02:46:20.203Z,95618.47
2024-03-04T02:47:21.952Z,95614.47
2024-03-04T02:48:23.768Z,95616.84
2024-03-04T02:49:25.857Z,95613.06
2024-03-04T02:50:30.995Z,95610.06
2024-03-04T02:51:32.863Z,95616.28
2024-03-04T02:52:35.281Z,95610.53
2024-03-04T02:53:37.236Z,95609.75
2024-03-04T02:54:39.108Z,95612.56
2024-03-04T02:55:41.025Z,95618.59
2024-03-04T02:56:43.132Z,95609.06
2024-03-04T02:57:44.860Z,95619.44
2024-03-04T02:58:46.687Z,95613.25
2024-03-04T02:59:48.497Z,95620.59
2024-03-04T03:00:50.375Z,95630.75
2024-03-04T03:01:52.118Z,95630.97
2024-03-04T03:02:53.974Z,95635.75
2024-03-04T03:03:55.867Z,95636.72
2024-03-04T03:04:57.575Z,95634.34
2024-03-04T03:05:59.507Z,95633.75
2024-03-04T03:07:02.140Z,95643.50
2024-03-04T03:08:04.012Z,95641.75
2024-03-04T03:09:05.885Z,95645.38
2024-03-04T03:10:07.672Z,95650.16
2024-03-04T03:11:09.559Z,95642.56
2024-03-04T03:12:14.352Z,95649.94
2024-03-04T03:13:16.122Z,95649.34
2024-03-04T03:14:17.969Z,95643.38
2024-03-04T03:15:19.826Z,95647.75
2024-03-04T03:16:22.320Z,95645.31
2024-03-04T03:17:27.436Z,95651.53
2024-03-04T03:18:29.292Z,95659.69
2024-03-04T03:19:31.200Z,95649.09
2024-03-04T03:20:33.007Z,95651.28
2024-03-04T03:21:35.020Z,95655.28
2024-03-04T03:22:36.822Z,95657.69
2024-03-04T03:23:38.682Z,95654.50
2024-03-04T03:24:42.132Z,95653.91
2024-03-04T03:25:43.951Z,95657.28
2024-03-04T03:26:46.180Z,95657.75
2024-03-04T03:27:47.997Z,95657.56
2024-03-04T03:28:50.068Z,95655.53
2024-03-04T03:29:51.769Z,95656.13
2024-03-04T03:30:53.546Z,95666.88
2024-03-04T03:31:55.328Z,95660.66
2024-03-04T03:32:57.162Z,95665.66
2024-03-04T03:33:59.078Z,95666.03
2024-03-04T03:35:01.264Z,95670.22
2024-03-04T03:36:03.998Z,95669.81
2024-03-04T03:37:05.896Z,95665.47
2024-03-04T03:38:07.643Z,95666.44
2024-03-04T03:39:11.265Z,95665.47
2024-03-04T03:40:13.509Z,95667.66
2024-03-04T03:41:15.627Z,95667.25
2024-03-04T03:42:17.392Z,95673.06
2024-03-04T03:43:19.235Z,95668.47
2024-03-04T03:44:21.194Z,95671.50
2024-03-04T03:45:22.919Z,95675.66
2024-03-04T03:46:24.659Z,95681.06
2024-03-04T03:47:26.586Z,95675.28
2024-03-04T03:48:28.679Z,95682.06
2024-03-04T03:49:30.520Z,95676.09
2024-03-04T03:50:32.417Z,95681.25
2024-03-04T03:51:34.162Z,95691.63
2024-03-04T03:52:36.659Z,95681.84
2024-03-04T03:53:38.496Z,95687.66
2024-03-04T03:54:40.298Z,95680.28
2024-03-04T03:55:42.194Z,95683.47
2024-03-04T03:56:44.034Z,95685.06
2024-03-04T03:57:55.206Z,95689.84
2024-03-04T03:59:01.063Z,95688.66
2024-03-04T04:00:03.846Z,95689.63
2024-03-04T04:01:06.384Z,95690.63
2024-03-04T04:02:09.164Z,95693.63
2024-03-04T04:03:11.325Z,95699.00
2024-03-04T04:04:13.068Z,95695.03
2024-03-04T04:05:14.779Z,95703.41
2024-03-04T04:06:16.635Z,95699.22
2024-03-04T04:07:19.418Z,95697.19
2024-03-04T04:08:21.331Z,95695.22
2024-03-04T04:09:23.163Z,95699.78
2024-03-04T04:10:25.684Z,95698.41
2024-03-04T04:11:27.595Z,95700.19
2024-03-04T04:12:29.289Z,95700.00
2024-03-04T04:13:31.944Z,95701.59
2024-03-04T04:14:33.873Z,95701.59
2024-03-04T04:15:35.768Z,95707.16
2024-03-04T04:16:37.937Z,95702.97
2024-03-04T04:17:39.873Z,95704.75
2024-03-04T04:18:42.171Z,95707.97
2024-03-04T04:19:44.043Z,95709.16
2024-03-04T04:20:49.287Z,95712.16
2024-03-04T04:21:51.385Z,95708.97
2024-03-04T04:22:53.282Z,95709.16
2024-03-04T04:23:55.038Z,95712.34
2024-03-04T04:24:57.097Z,95706.16
2024-03-04T04:25:58.992Z,95708.94
2024-03-04T04:27:00.722Z,95714.53
2024-03-04T04:28:02.671Z,95711.38
2024-03-04T04:29:04.535Z,95706.19
2024-03-04T04:30:07.816Z,95705.97
2024-03-04T04:31:18.984Z,95703.59
2024-03-04T04:32:20.819Z,95700.78
2024-03-04T04:33:24.205Z,95701.59
2024-03-04T04:34:26.418Z,95708.00
2024-03-04T04:35:28.381Z,95714.34
2024-03-04T04:36:30.194Z,95709.97
2024-03-04T04:37:32.083Z,95718.31
2024-03-04T04:38:33.911Z,95721.31
2024-03-04T04:39:35.701Z,95712.16
2024-03-04T04:40:39.121Z,95718.31
2024-03-04T04:41:41.259Z,95724.31
2024-03-04T04:42:43.282Z,95720.13
2024-03-04T04:43:45.178Z,95718.53
2024-03-04T04:44:47.460Z,95711.56
2024-03-04T04:45:50.511Z,95714.38
2024-03-04T04:46:52.396Z,95718.75
2024-03-04T04:47:55.375Z,95709.16
2024-03-04T04:48:57.361Z,95717.16
2024-03-04T04:50:00.117Z,95723.09
2024-03-04T04:51:01.972Z,95718.53
2024-03-04T04:52:04.545Z,95722.53
2024-03-04T04:53:06.374Z,95723.72
2024-03-04T04:54:08.254Z,95719.09
2024-03-04T04:55:10.172Z,95731.06
2024-03-04T04:56:16.874Z,95724.69
2024-03-04T04:57:21.259Z,95720.50
2024-03-04T04:58:23.795Z,95718.91
2024-03-04T04:59:25.597Z,95723.13
2024-03-04T05:00:27.442Z,95723.50
2024-03-04T05:01:30.017Z,95723.50
2024-03-04T05:02:32.177Z,95727.88
2024-03-04T05:03:48.179Z,95731.84
2024-03-04T05:04:58.359Z,95733.84
2024-03-04T05:06:01.773Z,95728.06
2024-03-04T05:07:03.697Z,95734.66
2024-03-04T05:08:06.731Z,95733.06
2024-03-04T05:09:09.849Z,95730.06
2024-03-04T05:10:11.637Z,95730.88
2024-03-04T05:11:13.677Z,95731.47
2024-03-04T05:12:15.977Z,95729.47
2024-03-04T05:13:17.759Z,95731.09
2024-03-04T05:14:20.735Z,95728.31
2024-03-04T05:15:22.650Z,95729.47
2024-03-04T05:16:24.404Z,95732.84
2024-03-04T05:17:26.307Z,95736.47
2024-03-04T05:18:28.139Z,95735.25
2024-03-04T05:19:35.831Z,95734.66
2024-03-04T05:20:50.299Z,95738.66
2024-03-04T05:21:57.596Z,95746.41
2024-03-04T05:22:59.638Z,95742.03
2024-03-04T05:24:01.478Z,95743.03
2024-03-04T05:25:03.372Z,95743.22
2024-03-04T05:26:05.247Z,95738.81
2024-03-04T05:27:07.050Z,95749.78
2024-03-04T05:28:08.782Z,95750.38
2024-03-04T05:29:10.859Z,95748.59
2024-03-04T05:30:13.261Z,95757.72
2024-03-04T05:31:15.026Z,95752.19
2024-03-04T05:32:16.796Z,95750.56
2024-03-04T05:33:18.664Z,95753.75
2024-03-04T05:34:20.657Z,95750.56
2024-03-04T05:35:22.587Z,95758.34
2024-03-04T05:36:24.381Z,95754.56
2024-03-04T05:37:26.197Z,95754.56
2024-03-04T05:38:27.968Z,95760.53
2024-03-04T05:39:33.247Z,95760.53
2024-03-04T05:40:36.216Z,95753.56
2024-03-04T05:41:41.133Z,95760.31
2024-03-04T05:42:43.534Z,95771.28
2024-03-04T05:43:45.318Z,95759.94
2024-03-04T05:44:47.304Z,95767.50
2024-03-04T05:45:49.000Z,95763.53
2024-03-04T05:46:50.872Z,95768.91
2024-03-04T05:47:52.871Z,95765.50
2024-03-04T05:48:54.739Z,95768.50
2024-03-04T05:49:56.518Z,95774.03
2024-03-04T05:50:58.418Z,95769.28
2024-03-04T05:52:00.872Z,95775.06
2024-03-04T05:53:02.970Z,95778.44
2024-03-04T05:54:04.737Z,95781.63
2024-03-04T05:55:07.917Z,95778.84
2024-03-04T05:56:10.217Z,95780.41
2024-03-04T05:57:11.987Z,95788.78
2024-03-04T05:58:13.792Z,95785.41
2024-03-04T05:59:15.803Z,95788.22
2024-03-04T06:00:17.813Z,95787.59
2024-03-04T06:01:20.688Z,95791.59
2024-03-04T06:02:22.644Z,95792.38
2024-03-04T06:03:24.389Z,95789.22
2024-03-04T06:04:26.182Z,95797.94
2024-03-04T06:05:27.987Z,95786.22
2024-03-04T06:06:29.739Z,95793.19
2024-03-04T06:07:31.736Z,95797.56
2024-03-04T06:08:34.512Z,95794.56
2024-03-04T06:09:36.282Z,95799.75
2024-03-04T06:10:38.332Z,95799.75
2024-03-04T06:11:40.392Z,95809.50
2024-03-04T06:12:42.803Z,95799.16
2024-03-04T06:13:44.665Z,95800.56
2024-03-04T06:14:46.681Z,95809.31
2024-03-04T06:15:48.485Z,95806.31
2024-03-04T06:16:51.053Z,95802.34
2024-03-04T06:17:52.893Z,95799.97
2024-03-04T06:18:54.763Z,95807.16
2024-03-04T06:19:56.858Z,95808.38
2024-03-04T06:21:00.877Z,95812.75
2024-03-04T06:22:08.278Z,95806.34
2024-03-04T06:23:14.394Z,95809.56
2024-03-04T06:24:16.554Z,95809.94
2024-03-04T06:25:18.394Z,95811.94
2024-03-04T06:26:20.207Z,95810.31
2024-03-04T06:27:22.054Z,95810.13
2024-03-04T06:28:24.008Z,95813.53
2024-03-04T06:29:25.791Z,95814.31
2024-03-04T06:30:27.636Z,95820.09
2024-03-04T06:31:29.463Z,95818.06
2024-03-04T06:32:31.228Z,95827.63
2024-03-04T06:33:44.403Z,95820.28
2024-03-04T06:34:54.240Z,95828.06
2024-03-04T06:35:56.041Z,95824.88
2024-03-04T06:37:00.306Z,95819.91
2024-03-04T06:38:02.075Z,95827.69
2024-03-04T06:39:03.889Z,95832.84
2024-03-04T06:40:05.983Z,95826.88
2024-03-04T06:41:08.222Z,95834.84
2024-03-04T06:42:10.144Z,95832.06
2024-03-04T06:43:11.924Z,95836.63
2024-03-04T06:44:13.814Z,95838.00
2024-03-04T06:45:15.628Z,95839.63
2024-03-04T06:46:17.347Z,95833.84
2024-03-04T06:47:19.079Z,95837.03
2024-03-04T06:48:21.297Z,95834.81
2024-03-04T06:49:23.803Z,95835.81
2024-03-04T06:50:25.629Z,95835.03
2024-03-04T06:51:27.891Z,95834.03
2024-03-04T06:52:29.735Z,95839.22
2024-03-04T06:53:31.532Z,95834.63
2024-03-04T06:54:33.460Z,95840.78
2024-03-04T06:55:35.300Z,95844.19
2024-03-04T06:56:37.587Z,95849.38
2024-03-04T06:57:39.452Z,95846.56
2024-03-04T06:58:41.394Z,95846.38
2024-03-04T06:59:43.148Z,95854.53
2024-03-04T07:00:45.603Z,95853.75
2024-03-04T07:01:47.462Z,95853.34
2024-03-04T07:02:49.300Z,95848.56
2024-03-04T07:03:51.350Z,95850.94
2024-03-04T07:04:53.277Z,95860.50
2024-03-04T07:05:55.066Z,95862.13
2024-03-04T07:06:56.785Z,95856.53
2024-03-04T07:07:58.574Z,95860.09
2024-03-04T07:09:00.385Z,95854.13
2024-03-04T07:10:02.291Z,95858.31
2024-03-04T07:11:05.432Z,95858.09
2024-03-04T07:12:11.844Z,95864.88
2024-03-04T07:13:13.882Z,95855.91
2024-03-04T07:14:15.893Z,95858.50
2024-03-04T07:15:17.813Z,95859.28
2024-03-04T07:16:19.742Z,95856.09
2024-03-04T07:17:21.517Z,95859.88
2024-03-04T07:18:23.344Z,95864.66
2024-03-04T07:19:25.463Z,95860.47
2024-03-04T07:20:27.226Z,95863.66
2024-03-04T07:21:29.047Z,95865.25
2024-03-04T07:22:30.951Z,95868.25
2024-03-04T07:23:32.722Z,95859.47
2024-03-04T07:24:34.390Z,95866.03
2024-03-04T07:25:36.240Z,95868.03
2024-03-04T07:26:38.140Z,95869.00
2024-03-04T07:27:39.974Z,95871.59
2024-03-04T07:28:42.684Z,95874.59
2024-03-04T07:29:48.918Z,95876.75
2024-03-04T07:30:56.962Z,95874.16
2024-03-04T07:31:58.897Z,95882.34
2024-03-04T07:33:03.943Z,95881.94
2024-03-04T07:34:05.718Z,95880.53
2024-03-04T07:35:07.842Z,95891.31
2024-03-04T07:36:15.465Z,95878.34
2024-03-04T07:37:18.707Z,95883.53
2024-03-04T07:38:21.137Z,95880.31
2024-03-04T07:39:24.047Z,95879.13
2024-03-04T07:40:25.909Z,95884.91
2024-03-04T07:41:27.822Z,95886.69
2024-03-04T07:42:29.732Z,95887.88
2024-03-04T07:43:31.574Z,95883.91
2024-03-04T07:44:38.557Z,95882.69
2024-03-04T07:45:40.345Z,95884.84
2024-03-04T07:46:42.959Z,95879.84
2024-03-04T07:47:44.937Z,95881.03
2024-03-04T07:48:46.695Z,95878.63
2024-03-04T07:49:48.680Z,95877.41
2024-03-04T07:50:50.538Z,95879.59
2024-03-04T07:51:52.384Z,95872.19
2024-03-04T07:52:54.143Z,95883.75
2024-03-04T07:53:56.012Z,95879.56
2024-03-04T07:54:57.807Z,95871.78
2024-03-04T07:55:59.645Z,95878.34
2024-03-04T07:57:10.297Z,95883.94
2024-03-04T07:58:19.137Z,95882.91
2024-03-04T07:59:20.989Z,95879.69
2024-03-04T08:00:22.857Z,95880.41
2024-03-04T08:01:24.770Z,95881.97
2024-03-04T08:02:26.592Z,95877.31
2024-03-04T08:03:28.370Z,95877.69
2024-03-04T08:04:30.244Z,95877.41
2024-03-04T08:05:32.458Z,95878.00
2024-03-04T08:06:36.161Z,95883.16
2024-03-04T08:07:41.031Z,95883.28
2024-03-04T08:08:44.458Z,95887.88
2024-03-04T08:09:46.359Z,95885.69
2024-03-04T08:10:48.115Z,95885.28
2024-03-04T08:11:49.995Z,95884.44
2024-03-04T08:12:51.732Z,95883.13
2024-03-04T08:13:53.572Z,95884.50
2024-03-04T08:14:55.653Z,95882.66
2024-03-04T08:15:57.800Z,95883.38
2024-03-04T08:16:59.599Z,95885.91
2024-03-04T08:18:01.832Z,95880.66
2024-03-04T08:19:03.696Z,95889.16
2024-03-04T08:20:14.868Z,95897.34
2024-03-04T08:21:22.568Z,95893.50
2024-03-04T08:22:24.645Z,95891.06
2024-03-04T08:23:26.552Z,95894.81
2024-03-04T08:24:28.302Z,95894.53
2024-03-04T08:25:30.177Z,95898.88
2024-03-04T08:26:32.035Z,95902.41
2024-03-04T08:27:34.726Z,95892.38
2024-03-04T08:28:36.582Z,95891.91
2024-03-04T08:29:38.389Z,95888.91
2024-03-04T08:30:40.520Z,95887.28
2024-03-04T08:31:42.355Z,95895.31
2024-03-04T08:32:47.026Z,95895.88
2024-03-04T08:33:48.933Z,95897.28
2024-03-04T08:34:51.362Z,95901.25
2024-03-04T08:35:53.125Z,95905.78
2024-03-04T08:36:55.496Z,95904.78
2024-03-04T08:37:57.460Z,95905.38
2024-03-04T08:38:59.388Z,95903.09
2024-03-04T08:40:05.025Z,95905.06
2024-03-04T08:41:06.806Z,95903.41
2024-03-04T08:42:08.533Z,95902.78
2024-03-04T08:43:10.566Z,95899.19
2024-03-04T08:44:12.647Z,95897.00
2024-03-04T08:45:14.584Z,95907.66
2024-03-04T08:46:17.030Z,95903.69
2024-03-04T08:47:19.120Z,95906.28
2024-03-04T08:48:20.888Z,95910.13
2024-03-04T08:49:22.766Z,95907.53
2024-03-04T08:50:24.615Z,95910.69
2024-03-04T08:51:26.689Z,95905.28
2024-03-04T08:52:29.279Z,95899.97
2024-03-04T08:53:31.096Z,95898.31
2024-03-04T08:54:33.283Z,95902.78
2024-03-04T08:55:35.103Z,95909.03
2024-03-04T08:56:37.105Z,95903.53
2024-03-04T08:57:38.867Z,95908.31
2024-03-04T08:58:41.285Z,95907.84
2024-03-04T08:59:43.179Z,95903.66
2024-03-04T09:00:45.046Z,95900.59
2024-03-04T09:01:46.918Z,95901.31
2024-03-04T09:02:48.656Z,95906.41
2024-03-04T09:03:50.433Z,95905.16
2024-03-04T09:04:52.276Z,95899.53
2024-03-04T09:05:54.371Z,95899.63
2024-03-04T09:06:56.450Z,95908.16
2024-03-04T09:08:01.460Z,95899.47
2024-03-04T09:09:03.388Z,95898.56
2024-03-04T09:10:05.987Z,95901.28
2024-03-04T09:11:07.951Z,95903.00
2024-03-04T09:12:09.789Z,95902.53
2024-03-04T09:13:11.637Z,95906.50
2024-03-04T09:14:13.633Z,95905.28
2024-03-04T09:15:17.442Z,95901.41
2024-03-04T09:16:20.260Z,95900.94
2024-03-04T09:17:22.650Z,95901.88
2024-03-04T09:18:24.485Z,95908.78
2024-03-04T09:19:26.241Z,95907.53
2024-03-04T09:20:28.047Z,95904.03
2024-03-04T09:21:29.842Z,95904.34
2024-03-04T09:22:31.732Z,95902.66
2024-03-04T09:23:33.604Z,95904.56
2024-03-04T09:24:35.397Z,95900.81
2024-03-04T09:25:40.212Z,95905.91
2024-03-04T09:26:47.528Z,95901.34
2024-03-04T09:27:49.345Z,95903.59
2024-03-04T09:28:52.146Z,95906.91
2024-03-04T09:29:54.357Z,95902.88
2024-03-04T09:30:56.124Z,95901.72
2024-03-04T09:31:58.097Z,95902.41
2024-03-04T09:33:00.001Z,95896.78
2024-03-04T09:34:02.052Z,95897.66
2024-03-04T09:35:06.423Z,95894.13
2024-03-04T09:36:08.237Z,95896.25
2024-03-04T09:37:10.418Z,95902.63
2024-03-04T09:38:12.585Z,95900.59
2024-03-04T09:39:15.113Z,95895.91
2024-03-04T09:40:17.584Z,95899.75
2024-03-04T09:41:20.016Z,95901.50
2024-03-04T09:42:21.874Z,95908.25
2024-03-04T09:43:27.722Z,95902.63
2024-03-04T09:44:31.535Z,95896.50
2024-03-04T09:45:33.969Z,95901.66
2024-03-04T09:46:39.841Z,95901.81
2024-03-04T09:47:42.450Z,95909.25
2024-03-04T09:48:46.716Z,95905.22
2024-03-04T09:49:48.580Z,95904.84
2024-03-04T09:50:52.375Z,95906.34
2024-03-04T09:51:54.310Z,95899.16
2024-03-04T09:52:57.987Z,95903.78
2024-03-04T09:54:01.425Z,95905.97
2024-03-04T09:55:03.616Z,95906.09
2024-03-04T09:56:05.823Z,95910.09
2024-03-04T09:57:09.110Z,95903.38
2024-03-04T09:58:11.086Z,95902.25
2024-03-04T09:59:12.886Z,95907.28
2024-03-04T10:00:17.626Z,95905.81
2024-03-04T10:01:21.041Z,95908.59
2024-03-04T10:02:24.420Z,95908.94
2024-03-04T10:03:26.453Z,95906.97
2024-03-04T10:04:30.268Z,95905.44
2024-03-04T10:05:32.620Z,95913.19
2024-03-04T10:06:34.464Z,95926.63
2024-03-04T10:07:37.661Z,95917.00
2024-03-04T10:08:39.460Z,95907.09
2024-03-04T10:09:41.234Z,95903.47
2024-03-04T10:10:43.294Z,95904.31
2024-03-04T10:11:45.839Z,95900.72
2024-03-04T10:12:48.790Z,95906.53
2024-03-04T10:13:51.487Z,95902.13
2024-03-04T10:15:08.505Z,95898.47
2024-03-04T10:16:14.787Z,95903.00
2024-03-04T10:17:17.312Z,95896.44
2024-03-04T10:18:19.215Z,95895.38
2024-03-04T10:19:21.535Z,95894.09
2024-03-04T10:20:25.270Z,95900.41
2024-03-04T10:21:36.593Z,95906.72
2024-03-04T10:22:41.562Z,95903.03
2024-03-04T10:23:43.780Z,95902.25
2024-03-04T10:24:45.505Z,95901.47
2024-03-04T10:25:48.264Z,95905.69
2024-03-04T10:26:50.189Z,95908.31
2024-03-04T10:27:52.402Z,95915.16
2024-03-04T10:28:54.291Z,95918.84
2024-03-04T10:30:09.893Z,95913.03
2024-03-04T10:31:12.580Z,95906.47
2024-03-04T10:32:18.050Z,95913.03
2024-03-04T10:33:20.300Z,95910.69
2024-03-04T10:34:22.803Z,95918.31
2024-03-04T10:35:29.435Z,95912.50
2024-03-04T10:36:33.293Z,95908.28
2024-03-04T10:37:35.436Z,95910.06
2024-03-04T10:38:38.160Z,95913.00
2024-03-04T10:39:40.193Z,95917.97
2024-03-04T10:40:43.121Z,95912.44
2024-03-04T10:41:47.529Z,95918.19
2024-03-04T10:42:49.336Z,95914.47
2024-03-04T10:43:53.340Z,95913.91
2024-03-04T10:44:55.485Z,95911.78
2024-03-04T10:45:57.297Z,95916.75
2024-03-04T10:47:02.612Z,95908.00
2024-03-04T10:48:07.451Z,95917.75
2024-03-04T10:49:09.549Z,95918.00
2024-03-04T10:50:11.734Z,95923.84
2024-03-04T10:51:15.351Z,95917.22
2024-03-04T10:52:17.406Z,95919.06
2024-03-04T10:53:19.617Z,95918.28
2024-03-04T10:54:23.702Z,95918.00
2024-03-04T10:55:26.227Z,95919.56
2024-03-04T10:56:30.573Z,95918.47
2024-03-04T10:57:33.598Z,95920.28
2024-03-04T10:58:36.064Z,95918.41
2024-03-04T10:59:38.742Z,95914.66
2024-03-04T11:00:41.825Z,95912.28
2024-03-04T11:01:44.198Z,95906.94
2024-03-04T11:02:52.591Z,95909.25
2024-03-04T11:04:03.631Z,95908.09
2024-03-04T11:05:07.441Z,95907.00
2024-03-04T11:06:11.034Z,95899.09
2024-03-04T11:07:13.707Z,95908.81
2024-03-04T11:08:29.006Z,95908.00
2024-03-04T11:09:32.070Z,95914.50
2024-03-04T11:10:43.412Z,95907.84
2024-03-04T11:11:49.386Z,95915.41
2024-03-04T11:12:57.909Z,95902.63
2024-03-04T11:14:16.066Z,95902.31
2024-03-04T11:15:19.036Z,95896.69
2024-03-04T11:16:29.107Z,95901.34
2024-03-04T11:17:35.524Z,95904.28
2024-03-04T11:18:41.996Z,95900.16
2024-03-04T11:19:44.066Z,95892.31
2024-03-04T11:20:47.997Z,95900.47
2024-03-04T11:21:50.726Z,95889.50
2024-03-04T11:22:54.573Z,95897.34
2024-03-04T11:23:56.993Z,95892.34
2024-03-04T11:24:59.739Z,95900.09
2024-03-04T11:26:02.132Z,95898.41
2024-03-04T11:27:04.351Z,95900.53
2024-03-04T11:28:06.905Z,95895.97
2024-03-04T11:29:09.409Z,95898.97
2024-03-04T11:30:11.716Z,95897.84
2024-03-04T11:31:26.754Z,95900.31
2024-03-04T11:32:30.575Z,95900.56
2024-03-04T11:33:39.970Z,95896.72
2024-03-04T11:35:01.853Z,95896.63
2024-03-04T11:36:04.175Z,95886.63
2024-03-04T11:37:06.059Z,95889.66
2024-03-04T11:38:08.472Z,95882.88
2024-03-04T11:39:23.364Z,95892.69
2024-03-04T11:40:26.195Z,95894.78
2024-03-04T11:41:38.430Z,95894.56
2024-03-04T11:42:40.375Z,95888.78
2024-03-04T11:43:42.837Z,95892.28
2024-03-04T11:44:46.696Z,95893.19
2024-03-04T11:45:48.471Z,95891.75
2024-03-04T11:46:50.358Z,95888.69
2024-03-04T11:47:52.160Z,95883.41
2024-03-04T11:48:57.562Z,95892.84
2024-03-04T11:49:59.464Z,95889.50
2024-03-04T11:51:01.420Z,95881.94
2024-03-04T11:52:07.173Z,95888.13
2024-03-04T11:53:28.357Z,95883.03
2024-03-04T11:54:36.841Z,95886.97
2024-03-04T11:55:38.786Z,95878.69
2024-03-04T11:56:42.224Z,95882.72
2024-03-04T11:57:44.268Z,95887.53
2024-03-04T11:58:48.049Z,95885.22
2024-03-04T11:59:59.445Z,95881.66
2024-03-04T12:01:08.823Z,95889.00
2024-03-04T12:02:19.021Z,95879.84
2024-03-04T12:03:20.914Z,95888.91
2024-03-04T12:04:30.842Z,95879.69
2024-03-04T12:05:32.820Z,95884.72
2024-03-04T12:06:35.766Z,95886.19
2024-03-04T12:07:38.127Z,95889.91
2024-03-04T12:08:52.483Z,95885.34
2024-03-04T12:10:13.202Z,95891.22
2024-03-04T12:11:20.400Z,95882.84
2024-03-04T12:12:22.625Z,95882.53
2024-03-04T12:13:24.495Z,95894.31
2024-03-04T12:14:26.402Z,95894.81
2024-03-04T12:15:29.418Z,95887.56
2024-03-04T12:16:32.388Z,95890.44
2024-03-04T12:17:34.217Z,95889.16
2024-03-04T12:18:37.492Z,95881.91
2024-03-04T12:19:52.120Z,95885.56